OJAMHECA

Guest
Details From OJAM - Marka Intl
To HECA - Cairo Intl
Flight Number -
Tags Generated
Created
Modified
Stats Distance 259 nm / 481 km
Max Altitude 0 ft / 0 m
Waypoints 3
Social Downloads 2
Likes 0
Share VATSIM

Download

Looking for another format? Having issues loading an existing format? Contact us
Advertisement - Login to hide

Notes

Generated

Route

OJAM R2526 HECA

ID Type Via Altitude Latitude Longitude Leg Dist Tot Dist Heading (true) Name
O OJAM APT - 0 ft / 0 m 31.96626˚ 35.97598˚ - 0 nm - -
R2526 FIX - 0 ft / 0 m 30.13909˚ 31.40626˚ 259 nm 259 nm 246° / 244° -
O HECA APT - 0 ft / 0 m 30.13821˚ 31.40615˚ 0 nm 259 nm 187° / 187° -

Altitude Profile

Advertisement - Login to hide

Weather


0- 5 10 15 20 25 30 35+ Temperature / ° C

Clouds and Precipitation
Forecast for 2017-12-16 18:00 UTC. Updated 2 hours ago

Ground ~20,000 ft ~40,000 ft Winds

OJAM

Details ICAO OJAM (ADJ)
Name MARKA INTL
Region Jordan and the West Bank
Timezone Asia/Amman (UTC+2.0)
Stats Elevation 2,555 ft / 779 m (AMSL)
Location 31.972703° 35.991572°
Runways 1
Magnetic Variation 4.690° E

METAR

OJAM 161700Z 12007KT 7000 NSC 13/04 Q1023 NOSIG

Decode

TAF

TAF OJAM 161100Z 1612/1718 15006KT 5000 HZ NSC TEMPO 1702/1706 3000= TAF OJAI 161100Z 1612/1718 16008KT 7000 NSC BECMG 1700/1702 5000 BR PROB30 1702/1706 1000 FG BECMG 1706/1708 7000

Decode

Departure Runways

ID Width Length Bearing (true) Bearing (mag) Surface Threshold Offset Overrun Length
06 148 ft / 45 m 10,736 ft / 3,272 m 64.03° 59.34° Asphalt 0 ft / 0 m 735 ft / 224 m
24 148 ft / 45 m 10,736 ft / 3,272 m 244.05° 239.36° Asphalt 0 ft / 0 m 394 ft / 120 m

HECA

Details ICAO HECA (CAI)
Name Cairo Intl
Region Egypt
Timezone Africa/Cairo (UTC+2.0)
Stats Elevation 382 ft / 116 m (AMSL)
Location 30.121808° 31.406095°
Runways 3
Magnetic Variation 4.404° E

METAR

HECA 161700Z 04006KT CAVOK 19/12 Q1020

Decode

TAF

TAF HECA 160500Z 1606/1712 07008KT 6000 NSC TEMPO 1606/1608 4000HZ BECMG 1609/1611 02010KT 9999 FEW025

Decode

Destination Runways

ID Width Length Bearing (true) Bearing (mag) Surface Threshold Offset Overrun Length
05L 197 ft / 60 m 10,833 ft / 3,302 m 49.29° 44.89° Asphalt 0 ft / 0 m 185 ft / 56 m
05R 197 ft / 60 m 13,126 ft / 4,001 m 49.03° 44.63° Asphalt 0 ft / 0 m 216 ft / 66 m
16 197 ft / 60 m 10,456 ft / 3,187 m 162.61° 158.21° Asphalt 0 ft / 0 m 125 ft / 38 m
23L 197 ft / 60 m 13,126 ft / 4,001 m 229.05° 224.65° Asphalt 0 ft / 0 m 225 ft / 69 m
23R 197 ft / 60 m 10,833 ft / 3,302 m 229.30° 224.90° Asphalt 0 ft / 0 m 185 ft / 56 m
34 197 ft / 60 m 10,456 ft / 3,187 m 342.61° 338.21° Asphalt 0 ft / 0 m 195 ft / 59 m

Approach Navaids

Runway Type Ident Frequency Range Bearing (true) Bearing (mag) Slope Elevation
05L Localiser CRL 110.90 MHz 18 nm / 33 km 49.27° 44.87° - 210 ft / 64 m (AMSL)
05L Glidescope CRL 110.90 MHz 10 nm / 19 km 49.29° 44.89° 3.00° 230 ft / 70 m (AMSL)
05L DME CRL 110.90 MHz 18 nm / 33 km - - - 230 ft / 70 m (AMSL)
05R Localiser IROT 109.90 MHz 18 nm / 33 km 49.04° 44.64° - 410 ft / 125 m (AMSL)
05R Glidescope IROT 109.90 MHz 10 nm / 19 km 49.04° 44.64° 3.00° 430 ft / 131 m (AMSL)
05R DME IROT 109.90 MHz 18 nm / 33 km - - - 430 ft / 131 m (AMSL)
23L Localiser ILOT 109.50 MHz 18 nm / 33 km 229.08° 224.68° - 420 ft / 128 m (AMSL)
23L Glidescope ILOT 109.50 MHz 10 nm / 19 km 229.04° 224.64° 3.00° 420 ft / 128 m (AMSL)
23L DME ILOT 109.50 MHz 18 nm / 33 km - - - 420 ft / 128 m (AMSL)
23R Localiser CRR 110.30 MHz 18 nm / 33 km 229.29° 224.89° - 210 ft / 64 m (AMSL)
23R Glidescope CRR 110.30 MHz 10 nm / 19 km 229.29° 224.89° 3.00° 230 ft / 70 m (AMSL)
23R DME CRR 110.30 MHz 18 nm / 33 km - - - 230 ft / 70 m (AMSL)

Popular Alternatives